createdAt,value
2022-12-05T00:02:45.746Z,1.31
2022-12-05T00:05:50.739Z,1.04
2022-12-05T00:08:55.768Z,1.02
2022-12-05T00:12:00.516Z,1.12
2022-12-05T00:15:09.633Z,1.17
2022-12-05T00:18:14.368Z,0.95
2022-12-05T00:21:21.581Z,0.99
2022-12-05T00:24:26.374Z,0.68
2022-12-05T00:27:31.016Z,0.70
2022-12-05T00:30:37.105Z,0.72
2022-12-05T00:33:42.009Z,0.66
2022-12-05T00:36:46.645Z,0.76
2022-12-05T00:39:51.413Z,0.45
2022-12-05T00:42:56.124Z,0.45
2022-12-05T00:46:04.545Z,0.54
2022-12-05T00:49:10.177Z,0.39
2022-12-05T00:52:14.813Z,0.39
2022-12-05T00:55:19.682Z,0.37
2022-12-05T00:58:24.361Z,0.51
2022-12-05T01:01:33.229Z,0.48
2022-12-05T01:04:38.476Z,0.19
2022-12-05T01:07:43.247Z,0.28
2022-12-05T01:10:55.167Z,0.33
2022-12-05T01:14:00.289Z,0.28
2022-12-05T01:17:06.687Z,0.37
2022-12-05T01:20:14.225Z,0.27
2022-12-05T01:23:18.978Z,0.26
2022-12-05T01:26:24.820Z,0.18
2022-12-05T01:29:29.845Z,0.12
2022-12-05T01:32:36.147Z,0.15
2022-12-05T01:35:42.484Z,0.13
2022-12-05T01:38:47.871Z,0.09
2022-12-05T01:41:53.264Z,-0.11
2022-12-05T01:45:07.197Z,-0.10
2022-12-05T01:48:19.619Z,-0.05
2022-12-05T01:51:25.277Z,-0.02
2022-12-05T01:54:31.154Z,0.02
2022-12-05T01:57:36.226Z,0.16
2022-12-05T02:00:41.660Z,-0.09
2022-12-05T02:03:50.210Z,-0.20
2022-12-05T02:06:55.126Z,-0.09
2022-12-05T02:10:00.253Z,-0.01
2022-12-05T02:13:16.834Z,-0.04
2022-12-05T02:16:29.554Z,0.13
2022-12-05T02:20:00.931Z,0.01
2022-12-05T02:23:57.874Z,0.10
2022-12-05T02:27:31.540Z,0.25
2022-12-05T02:30:41.045Z,0.27
2022-12-05T02:33:50.018Z,0.09
2022-12-05T02:37:00.837Z,0.13
2022-12-05T02:40:12.364Z,0.10
2022-12-05T02:43:20.470Z,0.12
2022-12-05T02:46:30.438Z,0.23
2022-12-05T02:49:38.019Z,0.31
2022-12-05T02:52:43.919Z,0.29
2022-12-05T02:55:50.134Z,0.38
2022-12-05T02:58:56.670Z,0.33
2022-12-05T03:02:02.679Z,0.38
2022-12-05T03:05:18.722Z,0.39
2022-12-05T03:08:28.996Z,0.38
2022-12-05T03:11:39.657Z,0.39
2022-12-05T03:14:48.349Z,0.39
2022-12-05T03:17:58.713Z,0.37
2022-12-05T03:21:10.055Z,0.39
2022-12-05T03:24:16.485Z,0.43
2022-12-05T03:27:27.041Z,0.63
2022-12-05T03:30:32.767Z,0.50
2022-12-05T03:33:43.848Z,0.58
2022-12-05T03:36:51.948Z,0.52
2022-12-05T03:40:07.697Z,0.53
2022-12-05T03:43:26.753Z,0.50
2022-12-05T03:46:33.977Z,0.68
2022-12-05T03:49:44.506Z,0.59
2022-12-05T03:53:18.796Z,0.67
2022-12-05T03:56:24.466Z,0.67
2022-12-05T03:59:34.424Z,0.63
2022-12-05T04:02:45.636Z,0.77
2022-12-05T04:05:54.368Z,0.76
2022-12-05T04:09:02.241Z,0.76
2022-12-05T04:12:10.073Z,0.70
2022-12-05T04:15:23.058Z,0.72
2022-12-05T04:18:27.878Z,0.91
2022-12-05T04:21:40.180Z,0.77
2022-12-05T04:25:02.450Z,0.81
2022-12-05T04:28:25.568Z,0.79
2022-12-05T04:31:35.052Z,0.82
2022-12-05T04:34:40.490Z,0.86
2022-12-05T04:37:50.186Z,0.81
2022-12-05T04:40:59.496Z,0.94
2022-12-05T04:44:09.124Z,0.90
2022-12-05T04:47:15.383Z,0.95
2022-12-05T04:50:20.941Z,0.96
2022-12-05T04:53:30.348Z,1.02
2022-12-05T04:56:38.083Z,1.02
2022-12-05T04:59:42.865Z,1.01
2022-12-05T05:02:52.980Z,1.08
2022-12-05T05:05:58.773Z,1.12
2022-12-05T05:09:06.117Z,1.17
2022-12-05T05:12:18.747Z,1.21
2022-12-05T05:15:23.975Z,1.29
2022-12-05T05:18:28.755Z,1.24
2022-12-05T05:21:35.701Z,1.17
2022-12-05T05:24:41.890Z,1.09
2022-12-05T05:27:51.263Z,1.30
2022-12-05T05:30:55.914Z,1.35
2022-12-05T05:34:07.388Z,1.25
2022-12-05T05:37:14.579Z,1.35
2022-12-05T05:40:21.078Z,1.40
2022-12-05T05:43:25.738Z,1.49
2022-12-05T05:46:32.979Z,1.47
2022-12-05T05:49:38.096Z,1.55
2022-12-05T05:52:44.514Z,1.59
2022-12-05T05:55:50.561Z,1.59
2022-12-05T05:59:00.327Z,1.37
2022-12-05T06:02:05.175Z,1.36
2022-12-05T06:05:10.668Z,1.45
2022-12-05T06:08:15.740Z,1.45
2022-12-05T06:11:26.348Z,1.55
2022-12-05T06:14:31.680Z,1.40
2022-12-05T06:17:36.343Z,1.43
2022-12-05T06:20:41.085Z,1.48
2022-12-05T06:23:46.134Z,1.55
2022-12-05T06:26:52.228Z,1.54
2022-12-05T06:29:57.329Z,1.42
2022-12-05T06:33:02.168Z,1.56
2022-12-05T06:36:09.941Z,1.50
2022-12-05T06:39:14.661Z,1.35
2022-12-05T06:42:22.341Z,1.37
2022-12-05T06:45:27.265Z,1.29
2022-12-05T06:48:32.293Z,1.37
2022-12-05T06:51:38.032Z,1.28
2022-12-05T06:54:42.685Z,1.18
2022-12-05T06:57:48.704Z,1.19
2022-12-05T07:01:11.593Z,1.32
2022-12-05T07:04:20.297Z,1.44
2022-12-05T07:07:25.078Z,1.41
2022-12-05T07:10:29.883Z,1.54
2022-12-05T07:13:36.446Z,1.62
2022-12-05T07:16:41.219Z,1.58
2022-12-05T07:19:46.099Z,1.67
2022-12-05T07:22:50.884Z,1.63
2022-12-05T07:25:57.899Z,1.61
2022-12-05T07:29:04.008Z,1.53
2022-12-05T07:32:09.448Z,1.74
2022-12-05T07:35:14.285Z,1.73
2022-12-05T07:38:18.970Z,1.63
2022-12-05T07:41:25.275Z,1.78
2022-12-05T07:44:31.391Z,1.66
2022-12-05T07:47:36.109Z,1.67
2022-12-05T07:50:40.845Z,1.58
2022-12-05T07:53:46.142Z,1.76
2022-12-05T07:56:50.839Z,1.77
2022-12-05T07:59:57.184Z,1.82
2022-12-05T08:03:04.264Z,1.74
2022-12-05T08:06:11.389Z,1.82
2022-12-05T08:09:16.378Z,1.90
2022-12-05T08:12:21.074Z,1.79
2022-12-05T08:15:27.308Z,2.03
2022-12-05T08:18:32.362Z,1.96
2022-12-05T08:21:37.213Z,2.03
2022-12-05T08:24:41.982Z,2.05
2022-12-05T08:27:47.007Z,1.93
2022-12-05T08:30:53.135Z,2.00
2022-12-05T08:33:59.512Z,1.94
2022-12-05T08:37:04.627Z,2.00
2022-12-05T08:40:10.516Z,2.00
2022-12-05T08:43:15.338Z,2.01
2022-12-05T08:46:21.447Z,1.88
2022-12-05T08:49:26.390Z,1.81
2022-12-05T08:52:31.445Z,1.82
2022-12-05T08:55:36.347Z,1.65
2022-12-05T08:58:41.629Z,1.54
2022-12-05T09:01:48.055Z,1.48
2022-12-05T09:04:54.155Z,1.51
2022-12-05T09:07:59.920Z,1.61
2022-12-05T09:11:08.126Z,1.67
2022-12-05T09:14:16.274Z,1.74
2022-12-05T09:17:23.186Z,1.68
2022-12-05T09:20:27.978Z,1.67
2022-12-05T09:23:33.194Z,1.74
2022-12-05T09:26:38.252Z,1.78
2022-12-05T09:29:43.471Z,1.84
2022-12-05T09:32:49.613Z,1.76
2022-12-05T09:35:54.343Z,1.77
2022-12-05T09:39:03.037Z,1.78
2022-12-05T09:42:27.181Z,1.80
2022-12-05T09:45:38.228Z,1.94
2022-12-05T09:48:45.009Z,2.02
2022-12-05T09:51:55.080Z,1.92
2022-12-05T09:55:06.379Z,1.89
2022-12-05T09:58:43.266Z,1.83
2022-12-05T10:01:56.224Z,1.99
2022-12-05T10:05:05.906Z,1.98
2022-12-05T10:08:19.229Z,2.02
2022-12-05T10:11:29.048Z,1.88
2022-12-05T10:14:40.968Z,1.96
2022-12-05T10:17:50.479Z,2.16
2022-12-05T10:21:02.245Z,2.11
2022-12-05T10:24:14.823Z,2.28
2022-12-05T10:27:22.005Z,2.43
2022-12-05T10:30:30.442Z,2.45
2022-12-05T10:33:40.700Z,2.48
2022-12-05T10:36:56.245Z,2.29
2022-12-05T10:40:00.944Z,2.24
2022-12-05T10:43:08.216Z,2.33
2022-12-05T10:46:17.203Z,2.23
2022-12-05T10:49:22.756Z,2.29
2022-12-05T10:52:28.823Z,2.43
2022-12-05T10:55:37.921Z,2.43
2022-12-05T10:58:57.248Z,2.42
2022-12-05T11:02:02.933Z,2.53
2022-12-05T11:05:09.557Z,2.55
2022-12-05T11:08:48.191Z,2.54
2022-12-05T11:12:04.948Z,2.42
2022-12-05T11:15:25.518Z,2.33
2022-12-05T11:18:33.719Z,2.26
2022-12-05T11:21:44.110Z,2.38
2022-12-05T11:24:50.280Z,2.54
2022-12-05T11:27:59.743Z,2.53
2022-12-05T11:31:17.794Z,2.53
2022-12-05T11:34:25.921Z,2.50
2022-12-05T11:37:36.462Z,2.40
2022-12-05T11:40:51.901Z,2.46
2022-12-05T11:44:24.981Z,2.40
2022-12-05T11:47:46.357Z,2.41
2022-12-05T11:51:04.977Z,2.41
2022-12-05T11:55:04.924Z,2.34
2022-12-05T11:58:37.529Z,2.30
2022-12-05T12:01:51.149Z,2.24
2022-12-05T12:05:02.243Z,2.27
2022-12-05T12:08:17.127Z,2.37
2022-12-05T12:11:28.860Z,2.34
2022-12-05T12:14:47.261Z,2.56
2022-12-05T12:17:59.165Z,2.48
2022-12-05T12:21:18.530Z,2.50
2022-12-05T12:24:33.061Z,2.44
2022-12-05T12:27:47.418Z,2.57
2022-12-05T12:31:08.481Z,2.53
2022-12-05T12:34:35.623Z,2.42
2022-12-05T12:37:47.402Z,2.48
2022-12-05T12:40:55.482Z,2.48
2022-12-05T12:44:08.783Z,2.53
2022-12-05T12:47:19.900Z,2.54
2022-12-05T12:50:26.803Z,2.52
2022-12-05T12:53:57.336Z,2.56
2022-12-05T12:57:15.271Z,2.59
2022-12-05T13:00:28.333Z,2.40
2022-12-05T13:03:40.939Z,2.30
2022-12-05T13:06:49.804Z,2.31
2022-12-05T13:09:58.995Z,2.32
2022-12-05T13:13:05.405Z,2.33
2022-12-05T13:16:18.425Z,2.42
2022-12-05T13:19:30.538Z,2.40
2022-12-05T13:22:35.414Z,2.34
2022-12-05T13:25:41.771Z,2.36
2022-12-05T13:28:52.669Z,2.39
2022-12-05T13:31:57.547Z,2.41
2022-12-05T13:35:11.105Z,2.44
2022-12-05T13:38:41.993Z,2.31
2022-12-05T13:42:06.440Z,2.33
2022-12-05T13:45:18.157Z,2.31
2022-12-05T13:48:25.555Z,2.38
2022-12-05T13:51:35.274Z,2.36
2022-12-05T13:54:45.638Z,2.48
2022-12-05T13:57:55.145Z,2.38
2022-12-05T14:01:51.937Z,2.40
2022-12-05T14:05:00.265Z,2.28
2022-12-05T14:08:58.806Z,2.36
2022-12-05T14:12:31.898Z,2.29
2022-12-05T14:15:42.683Z,2.22
2022-12-05T14:18:50.999Z,2.26
2022-12-05T14:22:02.824Z,2.32
2022-12-05T14:25:21.022Z,2.39
2022-12-05T14:28:39.137Z,1.56
2022-12-05T14:31:52.892Z,1.28
2022-12-05T14:35:00.115Z,1.04
2022-12-05T14:38:06.845Z,1.02
2022-12-05T14:41:23.302Z,1.08
2022-12-05T14:44:32.176Z,1.02
2022-12-05T14:47:37.213Z,1.03
2022-12-05T14:50:45.225Z,1.06
2022-12-05T14:53:50.613Z,1.24
2022-12-05T14:57:08.548Z,1.20
2022-12-05T15:00:21.239Z,1.17
2022-12-05T15:03:31.304Z,1.15
2022-12-05T15:06:43.630Z,1.07
2022-12-05T15:09:57.888Z,1.06
2022-12-05T15:13:09.360Z,1.16
2022-12-05T15:16:17.999Z,1.29
2022-12-05T15:19:29.990Z,1.24
2022-12-05T15:22:36.634Z,1.27
2022-12-05T15:25:41.533Z,1.32
2022-12-05T15:29:05.500Z,1.40
2022-12-05T15:32:20.173Z,1.39
2022-12-05T15:35:27.481Z,1.32
2022-12-05T15:38:35.026Z,1.40
2022-12-05T15:41:39.954Z,1.38
2022-12-05T15:44:46.144Z,1.46
2022-12-05T15:47:52.602Z,1.48
2022-12-05T15:50:57.543Z,1.36
2022-12-05T15:54:06.272Z,1.40
2022-12-05T15:57:16.409Z,1.31
2022-12-05T16:00:26.035Z,1.38
2022-12-05T16:03:39.467Z,1.41
2022-12-05T16:06:45.668Z,1.26
2022-12-05T16:09:52.017Z,1.34
2022-12-05T16:12:56.880Z,1.34
2022-12-05T16:16:03.337Z,1.34
2022-12-05T16:19:15.646Z,1.37
2022-12-05T16:22:24.154Z,1.31
2022-12-05T16:25:30.844Z,1.39
2022-12-05T16:28:35.994Z,1.41
2022-12-05T16:31:43.001Z,1.41
2022-12-05T16:34:48.029Z,1.48
2022-12-05T16:37:52.986Z,1.54
2022-12-05T16:40:59.680Z,1.53
2022-12-05T16:44:13.050Z,1.50
2022-12-05T16:47:25.569Z,1.45
2022-12-05T16:50:32.824Z,1.47
2022-12-05T16:53:37.736Z,1.39
2022-12-05T16:56:43.431Z,1.27
2022-12-05T16:59:49.864Z,1.43
2022-12-05T17:03:18.517Z,1.40
2022-12-05T17:06:21.339Z,1.48
2022-12-05T17:09:26.148Z,1.53
2022-12-05T17:12:31.152Z,1.43
2022-12-05T17:15:36.176Z,1.51
2022-12-05T17:18:42.605Z,1.53
2022-12-05T17:21:47.594Z,1.35
2022-12-05T17:24:52.442Z,1.29
2022-12-05T17:27:57.298Z,1.46
2022-12-05T17:31:02.318Z,1.48
2022-12-05T17:34:17.014Z,1.59
2022-12-05T17:37:21.965Z,1.38
2022-12-05T17:40:26.936Z,1.32
2022-12-05T17:43:31.826Z,1.47
2022-12-05T17:46:36.712Z,1.47
2022-12-05T17:49:43.069Z,1.31
2022-12-05T17:52:48.011Z,1.31
2022-12-05T17:55:53.040Z,1.35
2022-12-05T17:58:59.780Z,1.43
2022-12-05T18:02:05.562Z,1.31
2022-12-05T18:05:13.733Z,1.50
2022-12-05T18:08:19.115Z,1.54
2022-12-05T18:11:23.960Z,1.50
2022-12-05T18:14:28.896Z,1.59
2022-12-05T18:17:34.080Z,1.63
2022-12-05T18:20:40.344Z,1.63
2022-12-05T18:23:45.377Z,1.63
2022-12-05T18:26:50.150Z,1.65
2022-12-05T18:29:55.136Z,1.68
2022-12-05T18:33:00.069Z,1.58
2022-12-05T18:36:11.488Z,1.57
2022-12-05T18:39:16.536Z,1.68
2022-12-05T18:42:21.393Z,1.66
2022-12-05T18:45:26.946Z,1.68
2022-12-05T18:48:39.461Z,1.51
2022-12-05T18:51:47.476Z,1.56
2022-12-05T18:55:09.169Z,1.56
2022-12-05T18:58:17.342Z,1.43
2022-12-05T19:01:22.295Z,1.39
2022-12-05T19:04:27.632Z,1.55
2022-12-05T19:07:33.879Z,1.60
2022-12-05T19:10:38.850Z,1.48
2022-12-05T19:13:43.678Z,1.53
2022-12-05T19:16:54.936Z,1.57
2022-12-05T19:20:03.184Z,1.67
2022-12-05T19:23:09.604Z,1.71
2022-12-05T19:26:14.493Z,1.65
2022-12-05T19:29:19.480Z,1.70
2022-12-05T19:32:24.260Z,1.68
2022-12-05T19:35:29.456Z,1.72
2022-12-05T19:38:36.909Z,1.47
2022-12-05T19:41:41.867Z,1.55
2022-12-05T19:44:46.709Z,1.59
2022-12-05T19:47:51.553Z,1.67
2022-12-05T19:50:57.550Z,1.67
2022-12-05T19:54:05.735Z,1.67
2022-12-05T19:57:11.341Z,1.68
2022-12-05T20:00:19.830Z,1.66
2022-12-05T20:03:24.813Z,1.66
2022-12-05T20:06:32.858Z,1.50
2022-12-05T20:09:39.341Z,1.55
2022-12-05T20:12:44.188Z,1.37
2022-12-05T20:15:49.367Z,1.31
2022-12-05T20:18:55.381Z,1.38
2022-12-05T20:22:00.269Z,1.40
2022-12-05T20:25:07.101Z,1.33
2022-12-05T20:28:15.605Z,1.48
2022-12-05T20:31:22.364Z,1.53
2022-12-05T20:34:27.273Z,1.41
2022-12-05T20:37:35.369Z,1.30
2022-12-05T20:40:42.127Z,1.25
2022-12-05T20:43:53.064Z,1.25
2022-12-05T20:46:58.020Z,1.17
2022-12-05T20:50:02.860Z,1.10
2022-12-05T20:53:07.884Z,1.19
2022-12-05T20:56:17.074Z,1.39
2022-12-05T20:59:22.010Z,1.19
2022-12-05T21:02:26.957Z,1.22
2022-12-05T21:05:32.146Z,1.26
2022-12-05T21:08:36.964Z,1.05
2022-12-05T21:11:43.746Z,1.03
2022-12-05T21:14:48.566Z,1.23
2022-12-05T21:17:53.418Z,1.15
2022-12-05T21:20:59.046Z,1.12
2022-12-05T21:24:05.904Z,1.23
2022-12-05T21:27:12.102Z,1.31
2022-12-05T21:30:17.392Z,1.35
2022-12-05T21:33:27.249Z,1.36
2022-12-05T21:36:35.030Z,1.37
2022-12-05T21:39:40.064Z,1.38
2022-12-05T21:42:46.299Z,1.40
2022-12-05T21:45:53.734Z,1.33
2022-12-05T21:48:58.749Z,1.33
2022-12-05T21:52:03.620Z,1.26
2022-12-05T21:55:09.899Z,1.17
2022-12-05T21:58:16.445Z,1.04
2022-12-05T22:01:22.833Z,1.18
2022-12-05T22:04:27.713Z,1.23
2022-12-05T22:07:33.162Z,1.22
2022-12-05T22:10:38.073Z,1.27
2022-12-05T22:13:44.402Z,1.26
2022-12-05T22:16:49.398Z,1.30
2022-12-05T22:19:54.507Z,1.25
2022-12-05T22:22:59.315Z,1.22
2022-12-05T22:26:05.846Z,1.24
2022-12-05T22:29:13.061Z,1.25
2022-12-05T22:32:18.080Z,1.27
2022-12-05T22:35:22.869Z,1.16
2022-12-05T22:38:29.660Z,1.22
2022-12-05T22:41:34.512Z,1.22
2022-12-05T22:44:40.758Z,1.20
2022-12-05T22:47:45.553Z,1.27
2022-12-05T22:50:51.857Z,1.28
2022-12-05T22:53:56.916Z,1.24
2022-12-05T22:57:01.833Z,1.25
2022-12-05T23:00:10.126Z,1.30
2022-12-05T23:03:16.446Z,1.16
2022-12-05T23:06:21.488Z,1.25
2022-12-05T23:09:27.039Z,1.23
2022-12-05T23:12:32.008Z,1.25
2022-12-05T23:15:38.934Z,1.23
2022-12-05T23:18:50.370Z,1.24
2022-12-05T23:21:55.359Z,1.21
2022-12-05T23:25:00.264Z,1.18
2022-12-05T23:28:05.337Z,1.18
2022-12-05T23:31:13.284Z,1.11
2022-12-05T23:34:18.781Z,1.08
2022-12-05T23:37:23.691Z,1.20
2022-12-05T23:40:28.659Z,1.18
2022-12-05T23:43:34.918Z,1.19
2022-12-05T23:46:41.384Z,1.15
2022-12-05T23:49:47.625Z,1.19
2022-12-05T23:52:52.898Z,1.12
2022-12-05T23:56:02.329Z,1.03
2022-12-05T23:59:09.676Z,1.15
